sensor_id;sensor_type;location;lat;lon;timestamp;pressure;altitude;pressure_sealevel;temperature;humidity
37486;BME280;23341;50.296;18.960;2023-12-04T00:04:13;50973.84;;;-144.43;100.00
37486;BME280;23341;50.296;18.960;2023-12-04T00:09:18;50939.88;;;-144.43;100.00
37486;BME280;23341;50.296;18.960;2023-12-04T00:14:24;50943.84;;;-144.43;100.00
37486;BME280;23341;50.296;18.960;2023-12-04T00:19:30;50939.88;;;-144.43;100.00
37486;BME280;23341;50.296;18.960;2023-12-04T00:24:35;50973.84;;;-144.43;100.00
37486;BME280;23341;50.296;18.960;2023-12-04T00:29:40;50965.84;;;-144.43;100.00
37486;BME280;23341;50.296;18.960;2023-12-04T00:34:46;50957.84;;;-144.43;100.00
37486;BME280;23341;50.296;18.960;2023-12-04T00:39:50;51001.84;;;-144.43;100.00
37486;BME280;23341;50.296;18.960;2023-12-04T00:44:55;50993.84;;;-144.43;100.00
37486;BME280;23341;50.296;18.960;2023-12-04T00:50:01;50973.84;;;-144.43;100.00
37486;BME280;23341;50.296;18.960;2023-12-04T00:55:06;50973.84;;;-144.43;100.00
37486;BME280;23341;50.296;18.960;2023-12-04T01:00:12;51001.84;;;-144.43;100.00
37486;BME280;23341;50.296;18.960;2023-12-04T01:05:18;51021.84;;;-144.43;100.00
37486;BME280;23341;50.296;18.960;2023-12-04T01:10:22;51031.84;;;-144.43;100.00
37486;BME280;23341;50.296;18.960;2023-12-04T01:15:27;50997.84;;;-144.43;100.00
37486;BME280;23341;50.296;18.960;2023-12-04T01:20:32;50997.84;;;-144.43;100.00
37486;BME280;23341;50.296;18.960;2023-12-04T01:25:37;50957.84;;;-144.43;100.00
37486;BME280;23341;50.296;18.960;2023-12-04T01:30:41;50951.84;;;-144.43;100.00
37486;BME280;23341;50.296;18.960;2023-12-04T01:35:47;50979.84;;;-144.43;100.00
37486;BME280;23341;50.296;18.960;2023-12-04T01:40:53;50963.84;;;-144.43;100.00
37486;BME280;23341;50.296;18.960;2023-12-04T01:45:59;50953.84;;;-144.43;100.00
37486;BME280;23341;50.296;18.960;2023-12-04T01:51:08;50989.84;;;-144.43;100.00
37486;BME280;23341;50.296;18.960;2023-12-04T01:56:15;50899.88;;;-144.43;100.00
37486;BME280;23341;50.296;18.960;2023-12-04T02:01:22;50929.88;;;-144.43;100.00
37486;BME280;23341;50.296;18.960;2023-12-04T02:06:30;50941.88;;;-144.43;100.00
37486;BME280;23341;50.296;18.960;2023-12-04T02:11:34;50937.88;;;-144.43;100.00
37486;BME280;23341;50.296;18.960;2023-12-04T02:16:40;50943.84;;;-144.43;100.00
37486;BME280;23341;50.296;18.960;2023-12-04T02:21:47;50929.88;;;-144.43;100.00
37486;BME280;23341;50.296;18.960;2023-12-04T02:27:03;50921.88;;;-144.43;100.00
37486;BME280;23341;50.296;18.960;2023-12-04T02:32:11;50941.88;;;-144.43;100.00
37486;BME280;23341;50.296;18.960;2023-12-04T02:37:19;50909.88;;;-144.43;100.00
37486;BME280;23341;50.296;18.960;2023-12-04T02:42:25;50921.88;;;-144.43;100.00
37486;BME280;23341;50.296;18.960;2023-12-04T02:47:30;50933.88;;;-144.43;100.00
37486;BME280;23341;50.296;18.960;2023-12-04T02:52:34;50945.84;;;-144.43;100.00
37486;BME280;23341;50.296;18.960;2023-12-04T02:57:40;50945.84;;;-144.43;100.00
37486;BME280;23341;50.296;18.960;2023-12-04T03:02:44;50929.88;;;-144.43;100.00
37486;BME280;23341;50.296;18.960;2023-12-04T03:07:49;50935.88;;;-144.43;100.00
37486;BME280;23341;50.296;18.960;2023-12-04T03:12:54;50939.88;;;-144.43;100.00
37486;BME280;23341;50.296;18.960;2023-12-04T03:17:59;50943.84;;;-144.43;100.00
37486;BME280;23341;50.296;18.960;2023-12-04T03:23:07;50953.84;;;-144.43;100.00
37486;BME280;23341;50.296;18.960;2023-12-04T03:28:12;51025.84;;;-144.43;100.00
37486;BME280;23341;50.296;18.960;2023-12-04T03:33:18;50957.84;;;-144.43;100.00
37486;BME280;23341;50.296;18.960;2023-12-04T03:38:23;50989.84;;;-144.43;100.00
37486;BME280;23341;50.296;18.960;2023-12-04T03:43:28;50999.84;;;-144.43;100.00
37486;BME280;23341;50.296;18.960;2023-12-04T03:48:33;50945.84;;;-144.43;100.00
37486;BME280;23341;50.296;18.960;2023-12-04T03:53:37;50953.84;;;-144.43;100.00
37486;BME280;23341;50.296;18.960;2023-12-04T03:58:43;50935.88;;;-144.43;100.00
37486;BME280;23341;50.296;18.960;2023-12-04T04:03:48;50901.88;;;-144.43;100.00
37486;BME280;23341;50.296;18.960;2023-12-04T04:08:52;50903.88;;;-144.43;100.00
37486;BME280;23341;50.296;18.960;2023-12-04T04:13:58;50925.88;;;-144.43;100.00
37486;BME280;23341;50.296;18.960;2023-12-04T04:19:02;50949.84;;;-144.43;100.00
37486;BME280;23341;50.296;18.960;2023-12-04T04:24:07;50921.88;;;-144.43;100.00
37486;BME280;23341;50.296;18.960;2023-12-04T04:29:13;50969.84;;;-144.43;100.00
37486;BME280;23341;50.296;18.960;2023-12-04T04:34:18;50961.84;;;-144.43;100.00
37486;BME280;23341;50.296;18.960;2023-12-04T04:39:22;50985.84;;;-144.43;100.00
37486;BME280;23341;50.296;18.960;2023-12-04T04:44:28;50965.84;;;-144.43;100.00
37486;BME280;23341;50.296;18.960;2023-12-04T04:49:33;50953.84;;;-144.43;100.00
37486;BME280;23341;50.296;18.960;2023-12-04T04:54:37;50957.84;;;-144.43;100.00
37486;BME280;23341;50.296;18.960;2023-12-04T04:59:43;50981.84;;;-144.43;100.00
37486;BME280;23341;50.296;18.960;2023-12-04T05:04:47;50957.84;;;-144.43;100.00
37486;BME280;23341;50.296;18.960;2023-12-04T05:09:52;50947.84;;;-144.43;100.00
37486;BME280;23341;50.296;18.960;2023-12-04T05:14:58;50933.88;;;-144.43;100.00
37486;BME280;23341;50.296;18.960;2023-12-04T05:20:03;50977.84;;;-144.43;100.00
37486;BME280;23341;50.296;18.960;2023-12-04T05:25:08;50957.84;;;-144.43;100.00
37486;BME280;23341;50.296;18.960;2023-12-04T05:30:14;50951.84;;;-144.43;100.00
37486;BME280;23341;50.296;18.960;2023-12-04T05:35:18;50953.84;;;-144.43;100.00
37486;BME280;23341;50.296;18.960;2023-12-04T05:40:23;50971.84;;;-144.43;100.00
37486;BME280;23341;50.296;18.960;2023-12-04T05:45:29;50989.84;;;-144.43;100.00
37486;BME280;23341;50.296;18.960;2023-12-04T05:50:33;51009.84;;;-144.43;100.00
37486;BME280;23341;50.296;18.960;2023-12-04T05:55:38;51009.84;;;-144.43;100.00
37486;BME280;23341;50.296;18.960;2023-12-04T06:00:43;50987.84;;;-144.43;100.00
37486;BME280;23341;50.296;18.960;2023-12-04T06:05:48;50999.84;;;-144.43;100.00
37486;BME280;23341;50.296;18.960;2023-12-04T06:10:54;50989.84;;;-144.43;100.00
37486;BME280;23341;50.296;18.960;2023-12-04T06:16:01;50991.84;;;-144.43;100.00
37486;BME280;23341;50.296;18.960;2023-12-04T06:21:06;50953.84;;;-144.43;100.00
37486;BME280;23341;50.296;18.960;2023-12-04T06:26:12;50969.84;;;-144.43;100.00
37486;BME280;23341;50.296;18.960;2023-12-04T06:31:19;50927.88;;;-144.43;100.00
37486;BME280;23341;50.296;18.960;2023-12-04T06:36:24;50961.84;;;-144.43;100.00
37486;BME280;23341;50.296;18.960;2023-12-04T06:41:31;50949.84;;;-144.43;100.00
37486;BME280;23341;50.296;18.960;2023-12-04T06:46:38;50997.84;;;-144.43;100.00
37486;BME280;23341;50.296;18.960;2023-12-04T06:51:43;50957.84;;;-144.43;100.00
37486;BME280;23341;50.296;18.960;2023-12-04T06:56:47;51007.84;;;-144.43;100.00
37486;BME280;23341;50.296;18.960;2023-12-04T07:01:53;50953.84;;;-144.43;100.00
37486;BME280;23341;50.296;18.960;2023-12-04T07:06:58;50987.84;;;-144.43;100.00
37486;BME280;23341;50.296;18.960;2023-12-04T07:12:08;51025.84;;;-144.43;100.00
37486;BME280;23341;50.296;18.960;2023-12-04T07:17:14;50991.84;;;-144.43;100.00
37486;BME280;23341;50.296;18.960;2023-12-04T07:22:18;50993.84;;;-144.43;100.00
37486;BME280;23341;50.296;18.960;2023-12-04T07:27:23;51033.84;;;-144.43;100.00
37486;BME280;23341;50.296;18.960;2023-12-04T07:32:29;51007.84;;;-144.43;100.00
37486;BME280;23341;50.296;18.960;2023-12-04T07:37:33;51039.84;;;-144.43;100.00
37486;BME280;23341;50.296;18.960;2023-12-04T07:42:38;51039.84;;;-144.43;100.00
37486;BME280;23341;50.296;18.960;2023-12-04T07:47:44;51077.81;;;-144.43;100.00
37486;BME280;23341;50.296;18.960;2023-12-04T07:52:50;51071.81;;;-144.43;100.00
37486;BME280;23341;50.296;18.960;2023-12-04T07:57:54;51045.84;;;-144.43;100.00
37486;BME280;23341;50.296;18.960;2023-12-04T08:03:00;51019.84;;;-144.43;100.00
37486;BME280;23341;50.296;18.960;2023-12-04T08:08:05;50979.84;;;-144.43;100.00
37486;BME280;23341;50.296;18.960;2023-12-04T08:13:10;50981.84;;;-144.43;100.00
37486;BME280;23341;50.296;18.960;2023-12-04T08:18:16;50949.84;;;-144.43;100.00
37486;BME280;23341;50.296;18.960;2023-12-04T08:23:21;50937.88;;;-144.43;100.00
37486;BME280;23341;50.296;18.960;2023-12-04T08:28:25;50961.84;;;-144.43;100.00
37486;BME280;23341;50.296;18.960;2023-12-04T08:33:31;50941.88;;;-144.43;100.00
37486;BME280;23341;50.296;18.960;2023-12-04T08:38:36;50877.88;;;-144.43;100.00
37486;BME280;23341;50.296;18.960;2023-12-04T08:43:40;50759.91;;;-144.43;100.00
37486;BME280;23341;50.296;18.960;2023-12-04T08:48:46;50747.91;;;-144.43;100.00
37486;BME280;23341;50.296;18.960;2023-12-04T08:53:51;50797.91;;;-144.43;100.00
37486;BME280;23341;50.296;18.960;2023-12-04T08:58:55;50789.91;;;-144.43;100.00
37486;BME280;23341;50.296;18.960;2023-12-04T09:04:02;50793.91;;;-144.43;100.00
37486;BME280;23341;50.296;18.960;2023-12-04T09:09:07;50755.91;;;-144.43;100.00
37486;BME280;23341;50.296;18.960;2023-12-04T09:14:16;50787.91;;;-144.43;100.00
37486;BME280;23341;50.296;18.960;2023-12-04T09:19:21;50813.91;;;-144.43;100.00
37486;BME280;23341;50.296;18.960;2023-12-04T09:24:26;50763.91;;;-144.43;100.00
37486;BME280;23341;50.296;18.960;2023-12-04T09:29:33;50797.91;;;-144.43;100.00
37486;BME280;23341;50.296;18.960;2023-12-04T09:34:39;50749.91;;;-144.43;100.00
37486;BME280;23341;50.296;18.960;2023-12-04T09:39:44;50689.94;;;-144.43;100.00
37486;BME280;23341;50.296;18.960;2023-12-04T09:44:48;50683.94;;;-144.43;100.00
37486;BME280;23341;50.296;18.960;2023-12-04T09:49:54;50745.91;;;-144.43;100.00
37486;BME280;23341;50.296;18.960;2023-12-04T09:55:00;50657.94;;;-144.43;100.00
37486;BME280;23341;50.296;18.960;2023-12-04T10:00:06;50701.94;;;-144.43;100.00
37486;BME280;23341;50.296;18.960;2023-12-04T10:05:15;50645.97;;;-144.43;100.00
37486;BME280;23341;50.296;18.960;2023-12-04T10:10:20;50623.97;;;-144.43;100.00
37486;BME280;23341;50.296;18.960;2023-12-04T10:15:24;50593.97;;;-144.43;100.00
37486;BME280;23341;50.296;18.960;2023-12-04T10:20:33;50605.97;;;-144.43;100.00
37486;BME280;23341;50.296;18.960;2023-12-04T10:25:37;50605.97;;;-144.43;100.00
37486;BME280;23341;50.296;18.960;2023-12-04T10:30:42;50595.97;;;-144.43;100.00
37486;BME280;23341;50.296;18.960;2023-12-04T10:35:48;50536.00;;;-144.43;100.00
37486;BME280;23341;50.296;18.960;2023-12-04T10:40:53;50514.00;;;-144.43;100.00
37486;BME280;23341;50.296;18.960;2023-12-04T10:45:58;50516.00;;;-144.43;100.00
37486;BME280;23341;50.296;18.960;2023-12-04T10:51:04;50520.00;;;-144.43;100.00
37486;BME280;23341;50.296;18.960;2023-12-04T10:56:09;50548.00;;;-144.43;100.00
37486;BME280;23341;50.296;18.960;2023-12-04T11:01:15;50516.00;;;-144.43;100.00
37486;BME280;23341;50.296;18.960;2023-12-04T11:06:24;50550.00;;;-144.43;100.00
37486;BME280;23341;50.296;18.960;2023-12-04T11:11:35;50486.00;;;-144.43;100.00
37486;BME280;23341;50.296;18.960;2023-12-04T11:16:47;50488.00;;;-144.43;100.00
37486;BME280;23341;50.296;18.960;2023-12-04T11:21:53;50466.03;;;-144.43;100.00
37486;BME280;23341;50.296;18.960;2023-12-04T11:26:57;50502.00;;;-144.43;100.00
37486;BME280;23341;50.296;18.960;2023-12-04T11:32:05;50490.00;;;-144.43;100.00
37486;BME280;23341;50.296;18.960;2023-12-04T11:37:11;50502.00;;;-144.43;100.00
37486;BME280;23341;50.296;18.960;2023-12-04T11:42:19;50490.00;;;-144.43;100.00
37486;BME280;23341;50.296;18.960;2023-12-04T11:47:24;50438.03;;;-144.43;100.00
37486;BME280;23341;50.296;18.960;2023-12-04T11:52:37;50462.03;;;-144.43;100.00
37486;BME280;23341;50.296;18.960;2023-12-04T11:57:42;50460.03;;;-144.43;100.00
37486;BME280;23341;50.296;18.960;2023-12-04T12:02:49;50442.03;;;-144.43;100.00
37486;BME280;23341;50.296;18.960;2023-12-04T12:08:28;50386.06;;;-144.43;100.00
37486;BME280;23341;50.296;18.960;2023-12-04T12:13:33;50426.03;;;-144.43;100.00
37486;BME280;23341;50.296;18.960;2023-12-04T12:18:37;50398.06;;;-144.43;100.00
37486;BME280;23341;50.296;18.960;2023-12-04T12:23:46;50394.06;;;-144.43;100.00
37486;BME280;23341;50.296;18.960;2023-12-04T12:28:51;50378.06;;;-144.43;100.00
37486;BME280;23341;50.296;18.960;2023-12-04T12:33:55;50358.06;;;-144.43;100.00
37486;BME280;23341;50.296;18.960;2023-12-04T12:39:02;50374.06;;;-144.43;100.00
37486;BME280;23341;50.296;18.960;2023-12-04T12:44:07;50358.06;;;-144.43;100.00
37486;BME280;23341;50.296;18.960;2023-12-04T12:49:14;50374.06;;;-144.43;100.00
37486;BME280;23341;50.296;18.960;2023-12-04T12:54:32;50344.06;;;-144.43;100.00
37486;BME280;23341;50.296;18.960;2023-12-04T12:59:37;50324.09;;;-144.43;100.00
37486;BME280;23341;50.296;18.960;2023-12-04T13:04:43;50328.09;;;-144.43;100.00
37486;BME280;23341;50.296;18.960;2023-12-04T13:09:50;50318.09;;;-144.43;100.00
37486;BME280;23341;50.296;18.960;2023-12-04T13:14:56;50322.09;;;-144.43;100.00
37486;BME280;23341;50.296;18.960;2023-12-04T13:20:00;50330.09;;;-144.43;100.00
37486;BME280;23341;50.296;18.960;2023-12-04T13:25:08;50326.09;;;-144.43;100.00
37486;BME280;23341;50.296;18.960;2023-12-04T13:30:13;50300.09;;;-144.43;100.00
37486;BME280;23341;50.296;18.960;2023-12-04T13:35:18;50340.06;;;-144.43;100.00
37486;BME280;23341;50.296;18.960;2023-12-04T13:40:24;50330.09;;;-144.43;100.00
37486;BME280;23341;50.296;18.960;2023-12-04T13:45:31;50338.06;;;-144.43;100.00
37486;BME280;23341;50.296;18.960;2023-12-04T13:50:37;50326.09;;;-144.43;100.00
37486;BME280;23341;50.296;18.960;2023-12-04T13:55:43;50258.13;;;-144.43;100.00
37486;BME280;23341;50.296;18.960;2023-12-04T14:01:11;50278.09;;;-144.43;100.00
37486;BME280;23341;50.296;18.960;2023-12-04T14:06:17;50258.13;;;-144.43;100.00
37486;BME280;23341;50.296;18.960;2023-12-04T14:11:24;50244.13;;;-144.43;100.00
37486;BME280;23341;50.296;18.960;2023-12-04T14:16:28;50248.13;;;-144.43;100.00
37486;BME280;23341;50.296;18.960;2023-12-04T14:21:33;50270.09;;;-144.43;100.00
37486;BME280;23341;50.296;18.960;2023-12-04T14:26:39;50290.09;;;-144.43;100.00
37486;BME280;23341;50.296;18.960;2023-12-04T14:31:43;50254.13;;;-144.43;100.00
37486;BME280;23341;50.296;18.960;2023-12-04T14:36:48;50282.09;;;-144.43;100.00
37486;BME280;23341;50.296;18.960;2023-12-04T14:41:54;50254.13;;;-144.43;100.00
37486;BME280;23341;50.296;18.960;2023-12-04T14:46:59;50258.13;;;-144.43;100.00
37486;BME280;23341;50.296;18.960;2023-12-04T14:52:04;50272.09;;;-144.43;100.00
37486;BME280;23341;50.296;18.960;2023-12-04T14:57:11;50288.09;;;-144.43;100.00
37486;BME280;23341;50.296;18.960;2023-12-04T15:02:50;50274.09;;;-144.43;100.00
37486;BME280;23341;50.296;18.960;2023-12-04T15:08:13;50278.09;;;-144.43;100.00
37486;BME280;23341;50.296;18.960;2023-12-04T15:13:51;50290.09;;;-144.43;100.00
37486;BME280;23341;50.296;18.960;2023-12-04T15:19:07;50326.09;;;-144.43;100.00
37486;BME280;23341;50.296;18.960;2023-12-04T15:24:28;50302.09;;;-144.43;100.00
37486;BME280;23341;50.296;18.960;2023-12-04T15:29:35;50362.06;;;-144.43;100.00
37486;BME280;23341;50.296;18.960;2023-12-04T15:34:40;50336.06;;;-144.43;100.00
37486;BME280;23341;50.296;18.960;2023-12-04T15:39:44;50358.06;;;-144.43;100.00
37486;BME280;23341;50.296;18.960;2023-12-04T15:44:50;50382.06;;;-144.43;100.00
37486;BME280;23341;50.296;18.960;2023-12-04T15:49:55;50388.06;;;-144.43;100.00
37486;BME280;23341;50.296;18.960;2023-12-04T15:55:00;50364.06;;;-144.43;100.00
37486;BME280;23341;50.296;18.960;2023-12-04T16:00:09;50374.06;;;-144.43;100.00
37486;BME280;23341;50.296;18.960;2023-12-04T16:05:16;50388.06;;;-144.43;100.00
37486;BME280;23341;50.296;18.960;2023-12-04T16:10:21;50390.06;;;-144.43;100.00
37486;BME280;23341;50.296;18.960;2023-12-04T16:15:27;50360.06;;;-144.43;100.00
37486;BME280;23341;50.296;18.960;2023-12-04T16:20:31;50390.06;;;-144.43;100.00
37486;BME280;23341;50.296;18.960;2023-12-04T16:25:36;50346.06;;;-144.43;100.00
37486;BME280;23341;50.296;18.960;2023-12-04T16:30:42;50364.06;;;-144.43;100.00
37486;BME280;23341;50.296;18.960;2023-12-04T16:35:46;50378.06;;;-144.43;100.00
37486;BME280;23341;50.296;18.960;2023-12-04T16:40:50;50388.06;;;-144.43;100.00
37486;BME280;23341;50.296;18.960;2023-12-04T16:45:57;50418.03;;;-144.43;100.00
37486;BME280;23341;50.296;18.960;2023-12-04T16:51:02;50426.03;;;-144.43;100.00
37486;BME280;23341;50.296;18.960;2023-12-04T16:56:11;50372.06;;;-144.43;100.00
37486;BME280;23341;50.296;18.960;2023-12-04T17:01:17;50410.03;;;-144.43;100.00
37486;BME280;23341;50.296;18.960;2023-12-04T17:06:21;50394.06;;;-144.43;100.00
37486;BME280;23341;50.296;18.960;2023-12-04T17:11:26;50390.06;;;-144.43;100.00
37486;BME280;23341;50.296;18.960;2023-12-04T17:16:31;50392.06;;;-144.43;100.00
37486;BME280;23341;50.296;18.960;2023-12-04T17:21:38;50422.03;;;-144.43;100.00
37486;BME280;23341;50.296;18.960;2023-12-04T17:26:42;50410.03;;;-144.43;100.00
37486;BME280;23341;50.296;18.960;2023-12-04T17:31:48;50404.06;;;-144.43;100.00
37486;BME280;23341;50.296;18.960;2023-12-04T17:36:53;50394.06;;;-144.43;100.00
37486;BME280;23341;50.296;18.960;2023-12-04T17:41:57;50400.06;;;-144.43;100.00
37486;BME280;23341;50.296;18.960;2023-12-04T17:47:03;50404.06;;;-144.43;100.00
37486;BME280;23341;50.296;18.960;2023-12-04T17:52:08;50422.03;;;-144.43;100.00
37486;BME280;23341;50.296;18.960;2023-12-04T17:57:12;50394.06;;;-144.43;100.00
37486;BME280;23341;50.296;18.960;2023-12-04T18:02:18;50366.06;;;-144.43;100.00
37486;BME280;23341;50.296;18.960;2023-12-04T18:07:22;50426.03;;;-144.43;100.00
37486;BME280;23341;50.296;18.960;2023-12-04T18:12:27;50372.06;;;-144.43;100.00
37486;BME280;23341;50.296;18.960;2023-12-04T18:17:33;50394.06;;;-144.43;100.00
37486;BME280;23341;50.296;18.960;2023-12-04T18:22:45;50412.03;;;-144.43;100.00
37486;BME280;23341;50.296;18.960;2023-12-04T18:27:52;50426.03;;;-144.43;100.00
37486;BME280;23341;50.296;18.960;2023-12-04T18:33:01;50410.03;;;-144.43;100.00
37486;BME280;23341;50.296;18.960;2023-12-04T18:38:09;50406.06;;;-144.43;100.00
37486;BME280;23341;50.296;18.960;2023-12-04T18:43:15;50420.03;;;-144.43;100.00
37486;BME280;23341;50.296;18.960;2023-12-04T18:48:24;50438.03;;;-144.43;100.00
37486;BME280;23341;50.296;18.960;2023-12-04T18:53:31;50410.03;;;-144.43;100.00
37486;BME280;23341;50.296;18.960;2023-12-04T18:58:35;50418.03;;;-144.43;100.00
37486;BME280;23341;50.296;18.960;2023-12-04T19:03:41;50418.03;;;-144.43;100.00
37486;BME280;23341;50.296;18.960;2023-12-04T19:08:46;50424.03;;;-144.43;100.00
37486;BME280;23341;50.296;18.960;2023-12-04T19:13:50;50392.06;;;-144.43;100.00
37486;BME280;23341;50.296;18.960;2023-12-04T19:18:56;50434.03;;;-144.43;100.00
37486;BME280;23341;50.296;18.960;2023-12-04T19:24:01;50438.03;;;-144.43;100.00
37486;BME280;23341;50.296;18.960;2023-12-04T19:29:06;50448.03;;;-144.43;100.00
37486;BME280;23341;50.296;18.960;2023-12-04T19:34:15;50456.03;;;-144.43;100.00
37486;BME280;23341;50.296;18.960;2023-12-04T19:39:21;50448.03;;;-144.43;100.00
37486;BME280;23341;50.296;18.960;2023-12-04T19:44:25;50474.03;;;-144.43;100.00
37486;BME280;23341;50.296;18.960;2023-12-04T19:49:32;50512.00;;;-144.43;100.00
37486;BME280;23341;50.296;18.960;2023-12-04T19:54:40;50478.03;;;-144.43;100.00
37486;BME280;23341;50.296;18.960;2023-12-04T19:59:45;50524.00;;;-144.43;100.00
37486;BME280;23341;50.296;18.960;2023-12-04T20:04:51;50504.00;;;-144.43;100.00
37486;BME280;23341;50.296;18.960;2023-12-04T20:09:56;50506.00;;;-144.43;100.00
37486;BME280;23341;50.296;18.960;2023-12-04T20:15:01;50490.00;;;-144.43;100.00
37486;BME280;23341;50.296;18.960;2023-12-04T20:20:08;50526.00;;;-144.43;100.00
37486;BME280;23341;50.296;18.960;2023-12-04T20:25:13;50536.00;;;-144.43;100.00
37486;BME280;23341;50.296;18.960;2023-12-04T20:30:17;50536.00;;;-144.43;100.00
37486;BME280;23341;50.296;18.960;2023-12-04T20:35:23;50510.00;;;-144.43;100.00
37486;BME280;23341;50.296;18.960;2023-12-04T20:40:28;50567.97;;;-144.43;100.00
37486;BME280;23341;50.296;18.960;2023-12-04T20:45:32;50575.97;;;-144.43;100.00
37486;BME280;23341;50.296;18.960;2023-12-04T20:50:39;50565.97;;;-144.43;100.00
37486;BME280;23341;50.296;18.960;2023-12-04T20:55:43;50577.97;;;-144.43;100.00
37486;BME280;23341;50.296;18.960;2023-12-04T21:00:49;50605.97;;;-144.43;100.00
37486;BME280;23341;50.296;18.960;2023-12-04T21:05:55;50629.97;;;-144.43;100.00
37486;BME280;23341;50.296;18.960;2023-12-04T21:10:59;50627.97;;;-144.43;100.00
37486;BME280;23341;50.296;18.960;2023-12-04T21:16:04;50597.97;;;-144.43;100.00
37486;BME280;23341;50.296;18.960;2023-12-04T21:21:10;50633.97;;;-144.43;100.00
37486;BME280;23341;50.296;18.960;2023-12-04T21:26:15;50611.97;;;-144.43;100.00
37486;BME280;23341;50.296;18.960;2023-12-04T21:31:19;50595.97;;;-144.43;100.00
37486;BME280;23341;50.296;18.960;2023-12-04T21:36:25;50601.97;;;-144.43;100.00
37486;BME280;23341;50.296;18.960;2023-12-04T21:41:29;50597.97;;;-144.43;100.00
37486;BME280;23341;50.296;18.960;2023-12-04T21:46:35;50595.97;;;-144.43;100.00
37486;BME280;23341;50.296;18.960;2023-12-04T21:51:40;50552.00;;;-144.43;100.00
37486;BME280;23341;50.296;18.960;2023-12-04T21:56:46;50569.97;;;-144.43;100.00
37486;BME280;23341;50.296;18.960;2023-12-04T22:01:51;50569.97;;;-144.43;100.00
37486;BME280;23341;50.296;18.960;2023-12-04T22:06:57;50544.00;;;-144.43;100.00
37486;BME280;23341;50.296;18.960;2023-12-04T22:12:02;50534.00;;;-144.43;100.00
37486;BME280;23341;50.296;18.960;2023-12-04T22:17:07;50564.00;;;-144.43;100.00
37486;BME280;23341;50.296;18.960;2023-12-04T22:22:13;50558.00;;;-144.43;100.00
37486;BME280;23341;50.296;18.960;2023-12-04T22:27:17;50565.97;;;-144.43;100.00
37486;BME280;23341;50.296;18.960;2023-12-04T22:32:22;50536.00;;;-144.43;100.00
37486;BME280;23341;50.296;18.960;2023-12-04T22:37:27;50585.97;;;-144.43;100.00
37486;BME280;23341;50.296;18.960;2023-12-04T22:42:32;50577.97;;;-144.43;100.00
37486;BME280;23341;50.296;18.960;2023-12-04T22:47:36;50548.00;;;-144.43;100.00
37486;BME280;23341;50.296;18.960;2023-12-04T22:52:42;50532.00;;;-144.43;100.00
37486;BME280;23341;50.296;18.960;2023-12-04T22:57:49;50595.97;;;-144.43;100.00
37486;BME280;23341;50.296;18.960;2023-12-04T23:02:54;50601.97;;;-144.43;100.00
37486;BME280;23341;50.296;18.960;2023-12-04T23:08:00;50627.97;;;-144.43;100.00
37486;BME280;23341;50.296;18.960;2023-12-04T23:13:04;50621.97;;;-144.43;100.00
37486;BME280;23341;50.296;18.960;2023-12-04T23:18:09;50605.97;;;-144.43;100.00
37486;BME280;23341;50.296;18.960;2023-12-04T23:23:15;50593.97;;;-144.43;100.00
37486;BME280;23341;50.296;18.960;2023-12-04T23:28:20;50625.97;;;-144.43;100.00
37486;BME280;23341;50.296;18.960;2023-12-04T23:33:25;50629.97;;;-144.43;100.00
37486;BME280;23341;50.296;18.960;2023-12-04T23:38:32;50605.97;;;-144.43;100.00
37486;BME280;23341;50.296;18.960;2023-12-04T23:43:36;50645.97;;;-144.43;100.00
37486;BME280;23341;50.296;18.960;2023-12-04T23:48:40;50597.97;;;-144.43;100.00
37486;BME280;23341;50.296;18.960;2023-12-04T23:53:47;50645.97;;;-144.43;100.00
37486;BME280;23341;50.296;18.960;2023-12-04T23:58:52;50601.97;;;-144.43;100.00
